createdAt,value
2022-12-04T00:01:29.885Z,6.34
2022-12-04T00:03:59.700Z,6.40
2022-12-04T00:06:29.777Z,6.25
2022-12-04T00:08:58.399Z,6.27
2022-12-04T00:11:29.164Z,6.30
2022-12-04T00:14:04.641Z,6.40
2022-12-04T00:16:34.796Z,6.30
2022-12-04T00:19:02.961Z,6.36
2022-12-04T00:21:32.594Z,6.25
2022-12-04T00:24:00.955Z,6.15
2022-12-04T00:26:31.171Z,6.39
2022-12-04T00:28:59.520Z,6.34
2022-12-04T00:31:29.764Z,6.32
2022-12-04T00:33:58.739Z,6.16
2022-12-04T00:36:28.555Z,6.08
2022-12-04T00:39:00.601Z,6.07
2022-12-04T00:41:30.372Z,6.01
2022-12-04T00:43:58.550Z,6.05
2022-12-04T00:46:27.298Z,6.08
2022-12-04T00:48:55.951Z,6.05
2022-12-04T00:51:25.754Z,6.03
2022-12-04T00:53:54.853Z,6.02
2022-12-04T00:56:27.170Z,6.05
2022-12-04T00:58:56.491Z,5.98
2022-12-04T01:01:25.945Z,5.98
2022-12-04T01:03:55.750Z,5.93
2022-12-04T01:06:25.854Z,5.94
2022-12-04T01:08:55.527Z,5.96
2022-12-04T01:11:27.268Z,5.86
2022-12-04T01:13:55.647Z,5.91
2022-12-04T01:16:25.951Z,6.01
2022-12-04T01:18:54.500Z,5.92
2022-12-04T01:21:23.037Z,6.08
2022-12-04T01:23:51.376Z,6.11
2022-12-04T01:26:19.580Z,6.12
2022-12-04T01:28:49.064Z,6.22
2022-12-04T01:31:19.120Z,6.27
2022-12-04T01:33:47.880Z,6.40
2022-12-04T01:36:18.277Z,6.25
2022-12-04T01:38:46.448Z,6.21
2022-12-04T01:41:15.995Z,6.11
2022-12-04T01:43:44.194Z,6.05
2022-12-04T01:46:13.829Z,5.95
2022-12-04T01:48:47.559Z,5.98
2022-12-04T01:51:19.731Z,6.01
2022-12-04T01:53:52.294Z,6.01
2022-12-04T01:56:21.897Z,6.06
2022-12-04T01:58:53.768Z,5.98
2022-12-04T02:01:23.166Z,6.01
2022-12-04T02:03:51.662Z,5.84
2022-12-04T02:06:19.728Z,5.76
2022-12-04T02:08:48.207Z,5.78
2022-12-04T02:11:28.203Z,5.78
2022-12-04T02:14:07.348Z,5.84
2022-12-04T02:16:44.269Z,5.81
2022-12-04T02:19:34.274Z,5.76
2022-12-04T02:22:10.745Z,5.89
2022-12-04T02:24:50.386Z,5.94
2022-12-04T02:27:33.991Z,5.95
2022-12-04T02:30:06.907Z,6.07
2022-12-04T02:32:40.871Z,5.86
2022-12-04T02:35:16.339Z,5.89
2022-12-04T02:37:47.096Z,5.95
2022-12-04T02:40:22.419Z,5.99
2022-12-04T02:42:55.456Z,5.84
2022-12-04T02:45:28.517Z,5.91
2022-12-04T02:47:58.248Z,5.82
2022-12-04T02:50:28.207Z,5.79
2022-12-04T02:53:02.766Z,5.78
2022-12-04T02:55:36.859Z,5.84
2022-12-04T02:58:10.439Z,5.87
2022-12-04T03:00:45.070Z,5.86
2022-12-04T03:03:19.573Z,5.79
2022-12-04T03:05:55.410Z,5.78
2022-12-04T03:08:29.860Z,5.96
2022-12-04T03:11:01.568Z,5.79
2022-12-04T03:13:35.303Z,5.82
2022-12-04T03:16:09.683Z,5.90
2022-12-04T03:18:41.061Z,5.91
2022-12-04T03:21:13.427Z,5.86
2022-12-04T03:23:47.469Z,5.99
2022-12-04T03:26:23.874Z,6.07
2022-12-04T03:28:57.245Z,6.17
2022-12-04T03:31:33.480Z,6.06
2022-12-04T03:34:04.295Z,6.07
2022-12-04T03:36:37.596Z,6.15
2022-12-04T03:39:13.550Z,6.13
2022-12-04T03:41:55.397Z,6.24
2022-12-04T03:44:27.902Z,6.31
2022-12-04T03:47:04.653Z,6.31
2022-12-04T03:49:41.887Z,6.09
2022-12-04T03:52:15.616Z,6.11
2022-12-04T03:54:48.749Z,6.20
2022-12-04T03:57:20.345Z,5.99
2022-12-04T03:59:55.844Z,5.80
2022-12-04T04:02:30.067Z,5.70
2022-12-04T04:05:01.331Z,5.74
2022-12-04T04:07:36.122Z,5.86
2022-12-04T04:10:09.126Z,5.84
2022-12-04T04:12:41.917Z,5.76
2022-12-04T04:15:30.743Z,5.68
2022-12-04T04:18:20.018Z,5.74
2022-12-04T04:21:11.574Z,5.69
2022-12-04T04:24:02.175Z,5.64
2022-12-04T04:26:36.657Z,5.69
2022-12-04T04:29:04.805Z,5.82
2022-12-04T04:31:39.425Z,5.87
2022-12-04T04:34:18.650Z,5.78
2022-12-04T04:36:55.572Z,5.95
2022-12-04T04:39:32.084Z,6.03
2022-12-04T04:42:08.150Z,6.12
2022-12-04T04:44:45.177Z,6.17
2022-12-04T04:47:19.789Z,6.19
2022-12-04T04:49:53.143Z,5.99
2022-12-04T04:52:23.859Z,5.95
2022-12-04T04:54:51.897Z,5.84
2022-12-04T04:57:48.087Z,5.75
2022-12-04T05:00:19.491Z,5.77
2022-12-04T05:02:48.848Z,5.85
2022-12-04T05:05:18.587Z,5.84
2022-12-04T05:07:46.738Z,5.73
2022-12-04T05:10:15.140Z,5.79
2022-12-04T05:12:45.043Z,5.81
2022-12-04T05:15:13.260Z,5.81
2022-12-04T05:17:41.441Z,5.81
2022-12-04T05:20:11.441Z,5.92
2022-12-04T05:22:40.883Z,5.91
2022-12-04T05:25:09.686Z,5.94
2022-12-04T05:27:37.804Z,5.85
2022-12-04T05:30:08.016Z,5.88
2022-12-04T05:32:36.299Z,5.75
2022-12-04T05:35:10.621Z,5.80
2022-12-04T05:37:42.174Z,5.70
2022-12-04T05:40:11.233Z,5.76
2022-12-04T05:42:39.341Z,5.86
2022-12-04T05:45:08.229Z,5.78
2022-12-04T05:47:39.792Z,5.70
2022-12-04T05:50:10.346Z,5.72
2022-12-04T05:52:38.447Z,5.86
2022-12-04T05:55:08.456Z,5.86
2022-12-04T05:57:36.550Z,5.97
2022-12-04T06:00:06.246Z,6.00
2022-12-04T06:02:35.704Z,6.05
2022-12-04T06:05:04.057Z,6.05
2022-12-04T06:07:32.214Z,5.93
2022-12-04T06:10:00.418Z,5.84
2022-12-04T06:12:31.009Z,5.79
2022-12-04T06:14:59.078Z,5.71
2022-12-04T06:17:27.240Z,5.87
2022-12-04T06:19:56.285Z,5.79
2022-12-04T06:22:24.621Z,5.83
2022-12-04T06:24:52.711Z,5.79
2022-12-04T06:27:28.633Z,5.75
2022-12-04T06:29:58.956Z,5.75
2022-12-04T06:32:27.499Z,5.73
2022-12-04T06:34:56.687Z,5.75
2022-12-04T06:37:26.645Z,5.76
2022-12-04T06:39:55.237Z,5.80
2022-12-04T06:42:23.646Z,5.77
2022-12-04T06:44:51.847Z,5.70
2022-12-04T06:47:21.429Z,5.64
2022-12-04T06:49:51.617Z,5.69
2022-12-04T06:52:19.843Z,5.67
2022-12-04T06:54:48.131Z,5.71
2022-12-04T06:57:16.479Z,5.64
2022-12-04T06:59:44.580Z,5.74
2022-12-04T07:02:12.829Z,5.70
2022-12-04T07:04:42.620Z,5.71
2022-12-04T07:07:11.113Z,5.76
2022-12-04T07:09:39.431Z,5.79
2022-12-04T07:12:08.245Z,5.85
2022-12-04T07:14:36.383Z,5.82
2022-12-04T07:17:04.676Z,5.89
2022-12-04T07:19:32.799Z,5.82
2022-12-04T07:22:02.265Z,5.78
2022-12-04T07:24:30.419Z,5.71
2022-12-04T07:26:58.558Z,5.70
2022-12-04T07:29:26.680Z,5.66
2022-12-04T07:31:54.905Z,5.79
2022-12-04T07:34:23.504Z,5.72
2022-12-04T07:36:51.685Z,5.65
2022-12-04T07:39:21.253Z,5.74
2022-12-04T07:41:49.445Z,5.71
2022-12-04T07:44:17.986Z,5.84
2022-12-04T07:46:46.126Z,5.85
2022-12-04T07:49:14.574Z,5.98
2022-12-04T07:51:42.999Z,5.97
2022-12-04T07:54:11.180Z,6.00
2022-12-04T07:56:40.746Z,5.86
2022-12-04T07:59:08.898Z,5.90
2022-12-04T08:01:37.077Z,5.86
2022-12-04T08:04:05.499Z,5.97
2022-12-04T08:06:35.438Z,5.92
2022-12-04T08:09:09.566Z,5.91
2022-12-04T08:11:38.822Z,5.80
2022-12-04T08:14:09.855Z,5.78
2022-12-04T08:16:38.103Z,5.73
2022-12-04T08:19:06.541Z,5.72
2022-12-04T08:21:34.876Z,5.70
2022-12-04T08:24:03.135Z,5.85
2022-12-04T08:26:33.830Z,5.79
2022-12-04T08:29:02.833Z,5.91
2022-12-04T08:31:34.676Z,5.91
2022-12-04T08:34:05.326Z,5.80
2022-12-04T08:36:34.313Z,5.79
2022-12-04T08:39:02.452Z,5.85
2022-12-04T08:41:30.680Z,5.79
2022-12-04T08:44:00.582Z,5.78
2022-12-04T08:46:29.909Z,5.93
2022-12-04T08:48:59.824Z,6.01
2022-12-04T08:51:29.852Z,5.93
2022-12-04T08:54:01.373Z,5.87
2022-12-04T08:56:31.977Z,5.89
2022-12-04T08:59:01.004Z,5.91
2022-12-04T09:01:30.753Z,5.92
2022-12-04T09:04:00.447Z,6.07
2022-12-04T09:06:29.873Z,6.19
2022-12-04T09:08:59.008Z,6.05
2022-12-04T09:11:30.001Z,6.03
2022-12-04T09:13:58.257Z,5.96
2022-12-04T09:16:28.431Z,6.05
2022-12-04T09:19:00.837Z,5.98
2022-12-04T09:21:30.497Z,5.97
2022-12-04T09:24:00.242Z,5.87
2022-12-04T09:26:32.772Z,5.88
2022-12-04T09:29:03.093Z,5.95
2022-12-04T09:31:31.448Z,5.99
2022-12-04T09:34:00.063Z,5.97
2022-12-04T09:36:28.875Z,6.06
2022-12-04T09:38:59.601Z,5.99
2022-12-04T09:41:56.487Z,6.00
2022-12-04T09:44:29.209Z,5.96
2022-12-04T09:47:03.102Z,5.91
2022-12-04T09:49:38.629Z,5.85
2022-12-04T09:52:20.318Z,5.85
2022-12-04T09:54:53.388Z,5.88
2022-12-04T09:57:31.309Z,5.84
2022-12-04T10:00:00.402Z,5.87
2022-12-04T10:02:36.844Z,5.93
2022-12-04T10:05:06.178Z,5.90
2022-12-04T10:07:42.505Z,5.99
2022-12-04T10:10:23.414Z,5.92
2022-12-04T10:13:11.697Z,6.01
2022-12-04T10:15:48.431Z,6.06
2022-12-04T10:18:29.512Z,6.03
2022-12-04T10:21:25.107Z,5.94
2022-12-04T10:24:09.374Z,5.80
2022-12-04T10:26:45.256Z,5.98
2022-12-04T10:29:21.592Z,5.96
2022-12-04T10:31:53.331Z,5.94
2022-12-04T10:34:25.026Z,5.98
2022-12-04T10:36:55.585Z,6.09
2022-12-04T10:39:28.458Z,6.01
2022-12-04T10:42:03.088Z,6.25
2022-12-04T10:44:31.264Z,6.16
2022-12-04T10:47:01.823Z,6.17
2022-12-04T10:49:31.878Z,6.07
2022-12-04T10:52:00.145Z,6.06
2022-12-04T10:54:33.697Z,6.03
2022-12-04T10:57:05.838Z,6.29
2022-12-04T10:59:34.782Z,6.19
2022-12-04T11:02:07.483Z,6.02
2022-12-04T11:04:37.015Z,5.90
2022-12-04T11:07:07.784Z,5.80
2022-12-04T11:09:37.025Z,5.72
2022-12-04T11:12:18.106Z,5.74
2022-12-04T11:14:47.489Z,5.68
2022-12-04T11:17:20.094Z,5.75
2022-12-04T11:19:48.380Z,5.82
2022-12-04T11:22:19.107Z,5.77
2022-12-04T11:24:54.192Z,5.84
2022-12-04T11:27:28.015Z,5.79
2022-12-04T11:29:57.883Z,5.84
2022-12-04T11:32:29.896Z,5.89
2022-12-04T11:35:02.497Z,5.86
2022-12-04T11:37:34.779Z,5.81
2022-12-04T11:40:06.469Z,5.75
2022-12-04T11:42:35.960Z,5.67
2022-12-04T11:45:21.031Z,5.81
2022-12-04T11:47:55.718Z,5.94
2022-12-04T11:50:32.072Z,5.94
2022-12-04T11:53:11.636Z,5.78
2022-12-04T11:55:50.107Z,5.84
2022-12-04T11:58:41.033Z,5.80
2022-12-04T12:01:22.179Z,5.73
2022-12-04T12:04:04.382Z,5.73
2022-12-04T12:06:36.054Z,5.72
2022-12-04T12:09:18.866Z,5.74
2022-12-04T12:11:53.601Z,5.76
2022-12-04T12:14:31.184Z,5.73
2022-12-04T12:17:11.369Z,5.87
2022-12-04T12:20:04.232Z,5.99
2022-12-04T12:22:54.117Z,5.87
2022-12-04T12:25:28.299Z,5.81
2022-12-04T12:28:12.747Z,5.84
2022-12-04T12:30:55.468Z,5.91
2022-12-04T12:33:28.587Z,5.99
2022-12-04T12:36:02.607Z,5.90
2022-12-04T12:38:39.329Z,5.76
2022-12-04T12:41:14.394Z,5.81
2022-12-04T12:43:46.345Z,5.89
2022-12-04T12:46:19.365Z,5.87
2022-12-04T12:48:58.189Z,5.80
2022-12-04T12:51:35.689Z,5.85
2022-12-04T12:54:15.385Z,5.97
2022-12-04T12:56:50.682Z,5.81
2022-12-04T12:59:22.417Z,5.94
2022-12-04T13:02:00.915Z,5.85
2022-12-04T13:04:35.527Z,5.78
2022-12-04T13:07:16.344Z,5.89
2022-12-04T13:09:52.894Z,6.06
2022-12-04T13:12:24.211Z,6.19
2022-12-04T13:14:52.324Z,6.17
2022-12-04T13:17:29.919Z,6.13
2022-12-04T13:20:05.316Z,6.29
2022-12-04T13:22:45.959Z,6.57
2022-12-04T13:25:37.926Z,6.44
2022-12-04T13:28:18.495Z,6.38
2022-12-04T13:30:53.326Z,6.55
2022-12-04T13:33:59.849Z,6.55
2022-12-04T13:36:55.654Z,6.78
2022-12-04T13:39:50.145Z,6.73
2022-12-04T13:42:27.342Z,6.78
2022-12-04T13:44:59.010Z,6.80
2022-12-04T13:47:29.518Z,6.73
2022-12-04T13:50:23.216Z,6.69
2022-12-04T13:52:53.744Z,6.73
2022-12-04T13:55:27.699Z,6.72
2022-12-04T13:57:57.470Z,6.60
2022-12-04T14:00:30.662Z,6.51
2022-12-04T14:03:03.299Z,6.39
2022-12-04T14:05:40.421Z,6.56
2022-12-04T14:08:25.696Z,6.34
2022-12-04T14:11:03.675Z,6.30
2022-12-04T14:13:43.684Z,6.34
2022-12-04T14:16:21.067Z,6.23
2022-12-04T14:18:50.909Z,6.35
2022-12-04T14:21:19.323Z,6.39
2022-12-04T14:23:49.507Z,6.42
2022-12-04T14:26:29.297Z,6.39
2022-12-04T14:29:30.192Z,6.14
2022-12-04T14:32:01.870Z,6.10
2022-12-04T14:34:32.012Z,6.18
2022-12-04T14:37:02.314Z,6.35
2022-12-04T14:39:35.764Z,6.24
2022-12-04T14:42:13.913Z,6.11
2022-12-04T14:44:42.738Z,6.15
2022-12-04T14:47:21.696Z,6.28
2022-12-04T14:50:07.005Z,6.33
2022-12-04T14:52:42.163Z,6.27
2022-12-04T14:55:23.821Z,6.28
2022-12-04T14:57:56.740Z,6.36
2022-12-04T15:00:26.028Z,6.24
2022-12-04T15:02:57.713Z,6.14
2022-12-04T15:05:28.914Z,6.20
2022-12-04T15:08:01.307Z,6.19
2022-12-04T15:10:50.053Z,6.22
2022-12-04T15:13:26.952Z,6.24
2022-12-04T15:15:55.545Z,6.21
2022-12-04T15:18:23.731Z,6.22
2022-12-04T15:20:59.735Z,6.25
2022-12-04T15:23:32.333Z,6.24
2022-12-04T15:26:03.519Z,6.24
2022-12-04T15:28:35.549Z,6.38
2022-12-04T15:31:07.874Z,6.36
2022-12-04T15:33:39.738Z,6.34
2022-12-04T15:36:13.394Z,6.34
2022-12-04T15:38:42.027Z,6.23
2022-12-04T15:41:30.711Z,6.20
2022-12-04T15:43:59.020Z,6.12
2022-12-04T15:46:33.829Z,6.19
2022-12-04T15:49:16.957Z,6.17
2022-12-04T15:51:46.846Z,6.21
2022-12-04T15:54:21.082Z,6.23
2022-12-04T15:57:01.175Z,6.25
2022-12-04T15:59:31.012Z,6.33
2022-12-04T16:02:05.485Z,6.32
2022-12-04T16:04:35.665Z,6.36
2022-12-04T16:07:03.959Z,6.32
2022-12-04T16:09:32.607Z,6.33
2022-12-04T16:12:05.034Z,6.24
2022-12-04T16:14:33.197Z,6.25
2022-12-04T16:17:06.245Z,6.23
2022-12-04T16:19:37.120Z,6.30
2022-12-04T16:22:13.365Z,6.17
2022-12-04T16:24:42.008Z,6.12
2022-12-04T16:27:14.682Z,6.10
2022-12-04T16:29:43.266Z,6.09
2022-12-04T16:32:13.272Z,5.91
2022-12-04T16:34:41.892Z,5.81
2022-12-04T16:37:13.971Z,5.75
2022-12-04T16:39:42.413Z,5.82
2022-12-04T16:42:17.281Z,6.01
2022-12-04T16:44:46.232Z,5.93
2022-12-04T16:47:15.350Z,5.92
2022-12-04T16:49:44.687Z,5.76
2022-12-04T16:52:13.716Z,5.71
2022-12-04T16:54:42.258Z,5.63
2022-12-04T16:57:11.538Z,5.70
2022-12-04T16:59:41.699Z,5.60
2022-12-04T17:02:16.880Z,5.63
2022-12-04T17:04:44.991Z,5.58
2022-12-04T17:07:13.025Z,5.71
2022-12-04T17:09:41.929Z,5.87
2022-12-04T17:12:10.199Z,5.72
2022-12-04T17:14:39.121Z,5.66
2022-12-04T17:17:08.633Z,5.81
2022-12-04T17:19:36.739Z,5.90
2022-12-04T17:22:04.838Z,5.93
2022-12-04T17:24:33.096Z,5.95
2022-12-04T17:27:01.430Z,6.10
2022-12-04T17:29:29.580Z,6.11
2022-12-04T17:31:57.752Z,5.98
2022-12-04T17:34:27.334Z,5.97
2022-12-04T17:36:56.407Z,6.03
2022-12-04T17:39:24.833Z,6.05
2022-12-04T17:41:52.923Z,6.15
2022-12-04T17:44:21.153Z,6.09
2022-12-04T17:46:49.384Z,6.01
2022-12-04T17:49:17.616Z,6.07
2022-12-04T17:51:47.258Z,6.09
2022-12-04T17:54:15.430Z,5.89
2022-12-04T17:56:48.218Z,5.78
2022-12-04T17:59:18.696Z,5.70
2022-12-04T18:01:46.844Z,5.80
2022-12-04T18:04:14.910Z,5.82
2022-12-04T18:06:44.954Z,5.82
2022-12-04T18:09:17.184Z,5.95
2022-12-04T18:11:47.087Z,6.01
2022-12-04T18:14:17.741Z,5.98
2022-12-04T18:16:48.063Z,5.97
2022-12-04T18:19:16.354Z,6.12
2022-12-04T18:21:44.359Z,5.93
2022-12-04T18:24:12.570Z,5.77
2022-12-04T18:26:44.244Z,5.90
2022-12-04T18:29:14.513Z,5.92
2022-12-04T18:31:43.388Z,6.06
2022-12-04T18:34:12.106Z,5.91
2022-12-04T18:36:42.168Z,5.99
2022-12-04T18:39:13.582Z,5.97
2022-12-04T18:41:43.949Z,5.85
2022-12-04T18:44:12.406Z,6.05
2022-12-04T18:46:40.790Z,6.10
2022-12-04T18:49:09.741Z,6.05
2022-12-04T18:51:39.861Z,6.06
2022-12-04T18:54:11.377Z,5.98
2022-12-04T18:56:40.151Z,5.97
2022-12-04T18:59:13.038Z,5.81
2022-12-04T19:01:41.864Z,5.91
2022-12-04T19:04:12.681Z,5.78
2022-12-04T19:06:42.605Z,5.65
2022-12-04T19:09:13.154Z,5.71
2022-12-04T19:11:43.069Z,5.65
2022-12-04T19:14:22.458Z,5.62
2022-12-04T19:16:51.942Z,5.68
2022-12-04T19:19:20.258Z,5.66
2022-12-04T19:21:48.328Z,5.67
2022-12-04T19:24:16.470Z,5.52
2022-12-04T19:26:47.726Z,5.51
2022-12-04T19:29:17.299Z,5.48
2022-12-04T19:31:45.446Z,5.48
2022-12-04T19:34:13.745Z,5.48
2022-12-04T19:36:42.754Z,5.48
2022-12-04T19:39:11.440Z,5.48
2022-12-04T19:41:41.521Z,5.48
2022-12-04T19:44:39.926Z,5.56
2022-12-04T19:47:01.841Z,5.58
2022-12-04T19:49:30.102Z,5.58
2022-12-04T19:51:58.299Z,5.52
2022-12-04T19:54:26.454Z,5.56
2022-12-04T19:56:54.598Z,5.66
2022-12-04T19:59:22.835Z,5.67
2022-12-04T20:01:51.319Z,5.60
2022-12-04T20:04:21.559Z,5.65
2022-12-04T20:06:49.615Z,5.70
2022-12-04T20:09:21.233Z,5.72
2022-12-04T20:11:49.648Z,5.62
2022-12-04T20:14:18.932Z,5.67
2022-12-04T20:16:47.693Z,5.77
2022-12-04T20:19:18.010Z,5.79
2022-12-04T20:21:48.194Z,5.75
2022-12-04T20:24:18.419Z,5.70
2022-12-04T20:26:47.210Z,5.83
2022-12-04T20:29:19.597Z,5.85
2022-12-04T20:31:48.053Z,5.83
2022-12-04T20:34:18.565Z,5.73
2022-12-04T20:36:49.939Z,5.73
2022-12-04T20:39:19.645Z,5.74
2022-12-04T20:41:48.131Z,5.84
2022-12-04T20:44:18.731Z,5.86
2022-12-04T20:46:47.359Z,5.90
2022-12-04T20:49:21.778Z,5.90
2022-12-04T20:51:53.010Z,5.92
2022-12-04T20:54:23.275Z,5.92
2022-12-04T20:56:53.362Z,5.90
2022-12-04T20:59:23.422Z,5.78
2022-12-04T21:01:52.830Z,5.76
2022-12-04T21:04:21.555Z,5.78
2022-12-04T21:06:52.353Z,5.76
2022-12-04T21:09:24.104Z,5.81
2022-12-04T21:11:54.334Z,5.87
2022-12-04T21:14:44.513Z,5.83
2022-12-04T21:17:16.895Z,5.69
2022-12-04T21:19:45.529Z,5.58
2022-12-04T21:22:15.343Z,5.59
2022-12-04T21:24:43.836Z,5.64
2022-12-04T21:27:17.149Z,5.67
2022-12-04T21:29:47.212Z,5.70
2022-12-04T21:32:15.402Z,5.72
2022-12-04T21:34:43.730Z,5.85
2022-12-04T21:37:11.873Z,5.69
2022-12-04T21:39:42.053Z,5.65
2022-12-04T21:42:27.859Z,5.61
2022-12-04T21:44:55.908Z,5.63
2022-12-04T21:47:24.368Z,5.65
2022-12-04T21:49:52.768Z,5.81
2022-12-04T21:52:20.942Z,5.81
2022-12-04T21:54:52.099Z,5.93
2022-12-04T21:57:21.541Z,5.80
2022-12-04T21:59:51.544Z,5.72
2022-12-04T22:02:19.935Z,5.63
2022-12-04T22:04:48.317Z,5.66
2022-12-04T22:07:16.509Z,5.73
2022-12-04T22:09:44.782Z,5.85
2022-12-04T22:12:41.256Z,5.93
2022-12-04T22:15:02.244Z,5.88
2022-12-04T22:17:31.010Z,5.84
2022-12-04T22:19:59.427Z,5.82
2022-12-04T22:22:27.777Z,5.77
2022-12-04T22:24:56.141Z,5.86
2022-12-04T22:27:26.141Z,5.95
2022-12-04T22:29:54.460Z,5.97
2022-12-04T22:32:23.132Z,5.91
2022-12-04T22:34:51.564Z,5.85
2022-12-04T22:37:19.730Z,5.81
2022-12-04T22:39:47.821Z,5.91
2022-12-04T22:42:16.066Z,5.92
2022-12-04T22:44:45.660Z,5.86
2022-12-04T22:47:13.769Z,5.87
2022-12-04T22:49:42.741Z,5.84
2022-12-04T22:52:10.842Z,5.87
2022-12-04T22:54:39.017Z,5.92
2022-12-04T22:57:07.563Z,5.96
2022-12-04T22:59:35.585Z,5.96
2022-12-04T23:02:05.134Z,5.90
2022-12-04T23:04:33.355Z,5.87
2022-12-04T23:07:01.460Z,5.86
2022-12-04T23:09:29.662Z,5.83
2022-12-04T23:11:57.882Z,5.81
2022-12-04T23:14:27.229Z,5.86
2022-12-04T23:16:56.198Z,5.80
2022-12-04T23:19:25.699Z,5.87
2022-12-04T23:21:57.158Z,5.87
2022-12-04T23:24:25.976Z,5.86
2022-12-04T23:26:54.210Z,5.90
2022-12-04T23:29:52.866Z,5.94
2022-12-04T23:32:10.460Z,5.87
2022-12-04T23:34:40.094Z,5.86
2022-12-04T23:37:08.240Z,5.96
2022-12-04T23:39:36.373Z,5.92
2022-12-04T23:42:04.743Z,5.81
2022-12-04T23:44:32.775Z,5.89
2022-12-04T23:47:00.990Z,5.81
2022-12-04T23:49:29.528Z,5.77
2022-12-04T23:51:59.053Z,5.75
2022-12-04T23:54:27.395Z,5.79
2022-12-04T23:56:55.789Z,5.79
2022-12-04T23:59:23.889Z,5.74
